7FL8 weather

Dragonfly Airport
Fort Pierce, Florida, United States

Public forecast

Using degrees Fahrenheit for public forecast. Weather courtesy of forecast.io.

Closest aviation weather report (METAR) to Dragonfly Airport

Closest report is St Lucie County International Airport, 10.9 nm (20.2 km) ENE. Retrieved 2019/10/14 03:53 UTC (58 minutes ago):

KFPR 140353Z AUTO 14005KT 10SM FEW028 SCT035 26/21 A3005 RMK AO2 SLP174 T02560206

Closest aviation forecast (TAF) to Dragonfly Airport

Closest forecast is St Lucie County International Airport, 10.9 nm (20.2 km) ENE. Retrieved 2019-10-14 00:36 UTC (4 hours ago):

TAF KFPR 132335Z 1400/1424 VRB03KT P6SM FEW035 TEMPO 1400/1402 SCT035 BKN070 FM141500 08009KT P6SM FEW040